Fort Morgan, CO

2:58 AM MDT on August 30, 2014 (GMT -0600)
Greeley-Weld County | Change Station
CLOSE
Current Station
Airport
Location: Greeley,
Elevation: 4698 ft
Nearby Weather Stations

Elev 4698 ft 40.44 °N, 104.63 °W | Updated 23 minutes ago

Partly Cloudy
Partly Cloudy
54 °F
Feels Like 54 °F
N
0
Wind Variable Wind from North

Today
High -- | Low -- °F
--% Chance of Precip.
Yesterday
High -- | Low -- °F
Precip. -- in
6:20 AM 7:30 PM
Waxing Crescent, 20% visible
Pressure 30.11 in
Visibility 10.0 miles
Clouds Few 12000 ft
Dew Point 46 °F
Humidity 77%
Rainfall 0.00 in
Snow Depth Not available.
UV 0 out of 12
Pollen 10.40 out of 12
Air Quality Not available.
Flu Activity Not available.
METAR KGXY 300835Z AUTO 00000KT 10SM FEW120 12/08 A3011 RMK AO1

More Conditions Fewer Conditions

Pressure 30.11 in
Visibility 10.0 miles
Clouds Few 12000 ft
Dew Point 46 °F
Humidity 77%
Rainfall 0.00 in
Snow Depth Not available.
UV 0 out of 12
Pollen 10.40 out of 12
Air Quality Not available.
Flu Activity Not available.
METAR KGXY 300835Z AUTO 00000KT 10SM FEW120 12/08 A3011 RMK AO1

More Conditions Fewer Conditions

10-Day Weather Forecast

Almanac

Astronomy

Aug. 30, 2014 Rise Set
Actual Time 6:20 AM MDT 7:30 PM MDT
Civil Twilight 5:52 AM MDT 7:57 PM MDT
Nautical Twilight 5:19 AM MDT 8:31 PM MDT
Astronomical Twilight 4:44 AM MDT 9:06 PM MDT
Moon 11:11 AM MDT 10:05 PM MDT
Length of Visible Light 14h 05m
Length of Day
13h 09m
Tomorrow will be 2m 33s shorter.
Waxing Crescent, 20% of the Moon is Illuminated
Today
Waxing Crescent
Sep 2
First Quarter
Sep 8
Full
Sep 15
Last Quarter
Sep 24
New

Today's Extremes

State Highs State Lows

Community

WunderPhotos

Upload Photos

1,748,474 photos uploaded!

Nearby

Snow Depth

Station Depth Elevation
Copeland Lake 0 in 8600 ft
Niwot 1 in 9910 ft
University Camp 0 in 10300 ft
Wild Basin 1 in 9560 ft
Willow Park 0 in 10700 ft

Earthquake Activity

City Distance Mag. Time & Date
No recent earthquake activity has been reported nearby.
Minimum magnitude displayed is 2.5.

Coastal Water Temperatures

Place Temperature
No Stations Reporting

Nearby Weather Stations